CJN4 weather

Assiniboia Airport
Assiniboia, Saskatchewan, Canada

Public forecast

Using degrees Celsius for public forecast. Weather courtesy of forecast.io.

Closest aviation weather report (METAR) to Assiniboia Airport

Report is more than 6 hours old.

Closest report is Moose Jaw Air Vice Marshal C. M. McEwen Airport, 38.8 nm (71.8 km) NNE. Retrieved 2020/01/17 22:00 UTC (1 day ago):

CYMJ 172200Z 32021KT 3SM -SN DRSN FEW015 OVC035 M19/M23 A3004 RMK SC2SC6 LAST OBS/NEXT 191800 UTC SLP230

Closest aviation forecast (TAF) to Assiniboia Airport

Forecast is more than 12 hours old.

Closest forecast is Moose Jaw Air Vice Marshal C. M. McEwen Airport, 38.8 nm (71.8 km) NNE. Retrieved 2020/01/17 18:33 UTC (1 day ago):

TAF CYMJ 171730Z 1718/1806 VRB03KT 5SM -SN OVC015 TEMPO 1718/1721 6SM IC OVC030 BECMG 1719/1721 31018G28KT FM172100 31018G28KT 2SM -SN OVC008 TEMPO 1721/1803 6SM -SN OVC030 FM180300 30018G28KT 6SM IC FEW015 OVC040 TEMPO 1803/1806 5SM -SN RMK NXT FCST BY 180000Z